createdAt,value
2023-05-05T00:00:16.166Z,9.04
2023-05-05T00:03:04.501Z,9.03
2023-05-05T00:05:32.621Z,9.00
2023-05-05T00:08:00.706Z,8.94
2023-05-05T00:10:28.766Z,8.86
2023-05-05T00:12:56.760Z,8.79
2023-05-05T00:15:25.109Z,8.70
2023-05-05T00:17:53.178Z,8.63
2023-05-05T00:20:21.468Z,8.62
2023-05-05T00:22:49.379Z,8.64
2023-05-05T00:25:17.446Z,8.63
2023-05-05T00:27:45.848Z,8.61
2023-05-05T00:30:13.849Z,8.62
2023-05-05T00:32:41.873Z,8.63
2023-05-05T00:35:09.956Z,8.65
2023-05-05T00:37:37.970Z,8.68
2023-05-05T00:40:06.814Z,8.71
2023-05-05T00:42:50.942Z,8.73
2023-05-05T00:45:20.257Z,8.68
2023-05-05T00:47:54.230Z,8.63
2023-05-05T00:50:30.010Z,8.63
2023-05-05T00:53:04.511Z,8.61
2023-05-05T00:55:34.291Z,8.60
2023-05-05T00:58:04.548Z,8.55
2023-05-05T01:00:32.769Z,8.46
2023-05-05T01:03:00.983Z,8.42
2023-05-05T01:05:42.420Z,8.42
2023-05-05T01:08:41.577Z,8.40
2023-05-05T01:11:31.610Z,8.34
2023-05-05T01:14:26.497Z,8.22
2023-05-05T01:17:01.445Z,8.16
2023-05-05T01:20:06.416Z,8.16
2023-05-05T01:22:51.018Z,8.19
2023-05-05T01:25:56.023Z,8.19
2023-05-05T01:28:31.300Z,8.17
2023-05-05T01:31:17.913Z,8.11
2023-05-05T01:33:50.009Z,8.10
2023-05-05T01:36:26.051Z,8.03
2023-05-05T01:38:58.240Z,7.93
2023-05-05T01:41:48.240Z,7.82
2023-05-05T01:44:18.860Z,7.74
2023-05-05T01:46:48.996Z,7.65
2023-05-05T01:49:17.171Z,7.57
2023-05-05T01:51:48.970Z,7.51
2023-05-05T01:54:18.793Z,7.51
2023-05-05T01:56:49.327Z,7.58
2023-05-05T01:59:18.478Z,7.62
2023-05-05T02:01:49.014Z,7.63
2023-05-05T02:04:22.761Z,7.67
2023-05-05T02:06:53.211Z,7.70
2023-05-05T02:09:25.742Z,7.67
2023-05-05T02:11:57.189Z,7.64
2023-05-05T02:14:28.842Z,7.62
2023-05-05T02:16:58.144Z,7.63
2023-05-05T02:19:32.493Z,7.66
2023-05-05T02:22:00.643Z,7.64
2023-05-05T02:24:29.275Z,7.56
2023-05-05T02:26:58.933Z,7.48
2023-05-05T02:29:35.742Z,7.41
2023-05-05T02:32:13.681Z,7.38
2023-05-05T02:34:45.915Z,7.38
2023-05-05T02:37:20.000Z,7.38
2023-05-05T02:39:59.184Z,7.36
2023-05-05T02:42:34.044Z,7.41
2023-05-05T02:45:10.923Z,7.41
2023-05-05T02:47:40.285Z,7.35
2023-05-05T02:50:09.504Z,7.31
2023-05-05T02:52:39.260Z,7.31
2023-05-05T02:55:08.389Z,7.31
2023-05-05T02:57:50.946Z,7.32
2023-05-05T03:00:32.221Z,7.33
2023-05-05T03:03:25.967Z,7.33
2023-05-05T03:06:07.443Z,7.37
2023-05-05T03:08:41.065Z,7.38
2023-05-05T03:11:19.104Z,7.35
2023-05-05T03:13:53.934Z,7.33
2023-05-05T03:16:26.359Z,7.30
2023-05-05T03:18:56.966Z,7.30
2023-05-05T03:21:25.320Z,7.30
2023-05-05T03:23:54.004Z,7.29
2023-05-05T03:26:22.132Z,7.28
2023-05-05T03:28:50.996Z,7.27
2023-05-05T03:31:23.316Z,7.30
2023-05-05T03:33:54.904Z,7.33
2023-05-05T03:36:26.189Z,7.30
2023-05-05T03:38:56.587Z,7.25
2023-05-05T03:41:27.545Z,7.23
2023-05-05T03:43:56.153Z,7.25
2023-05-05T03:46:24.168Z,7.23
2023-05-05T03:48:52.202Z,7.21
2023-05-05T03:51:20.277Z,7.25
2023-05-05T03:53:48.286Z,7.30
2023-05-05T03:56:16.555Z,7.32
2023-05-05T03:58:44.891Z,7.36
2023-05-05T04:01:13.961Z,7.38
2023-05-05T04:03:42.047Z,7.44
2023-05-05T04:06:10.158Z,7.47
2023-05-05T04:08:38.198Z,7.52
2023-05-05T04:11:06.495Z,7.57
2023-05-05T04:13:34.968Z,7.63
2023-05-05T04:16:03.957Z,7.68
2023-05-05T04:18:32.586Z,7.74
2023-05-05T04:21:01.112Z,7.80
2023-05-05T04:23:29.082Z,7.87
2023-05-05T04:25:57.743Z,7.94
2023-05-05T04:28:26.181Z,8.01
2023-05-05T04:30:54.345Z,8.09
2023-05-05T04:33:22.621Z,8.16
2023-05-05T04:35:50.885Z,8.26
2023-05-05T04:38:20.905Z,8.35
2023-05-05T04:40:49.465Z,8.48
2023-05-05T04:43:17.875Z,8.61
2023-05-05T04:45:53.084Z,8.74
2023-05-05T04:48:21.342Z,8.90
2023-05-05T04:50:49.410Z,9.03
2023-05-05T04:53:18.158Z,9.14
2023-05-05T04:55:46.507Z,9.25
2023-05-05T04:58:14.434Z,9.38
2023-05-05T05:00:42.414Z,9.48
2023-05-05T05:03:12.108Z,9.58
2023-05-05T05:05:40.181Z,9.67
2023-05-05T05:08:09.485Z,9.76
2023-05-05T05:10:37.449Z,9.84
2023-05-05T05:13:05.471Z,9.92
2023-05-05T05:15:33.582Z,10.03
2023-05-05T05:18:01.590Z,10.12
2023-05-05T05:20:33.370Z,10.23
2023-05-05T05:23:02.520Z,10.36
2023-05-05T05:25:31.368Z,10.50
2023-05-05T05:28:09.676Z,10.68
2023-05-05T05:30:41.987Z,10.85
2023-05-05T05:33:10.805Z,10.96
2023-05-05T05:35:39.762Z,11.07
2023-05-05T05:38:08.247Z,11.17
2023-05-05T05:40:37.254Z,11.32
2023-05-05T05:43:05.325Z,11.47
2023-05-05T05:45:33.732Z,11.58
2023-05-05T05:48:03.589Z,11.70
2023-05-05T05:50:31.816Z,11.80
2023-05-05T05:53:00.218Z,11.90
2023-05-05T05:55:28.693Z,11.98
2023-05-05T05:57:58.160Z,12.05
2023-05-05T06:00:27.134Z,12.12
2023-05-05T06:03:00.081Z,12.19
2023-05-05T06:05:31.490Z,12.22
2023-05-05T06:07:59.790Z,12.29
2023-05-05T06:10:28.836Z,12.35
2023-05-05T06:13:03.738Z,12.39
2023-05-05T06:15:32.287Z,12.45
2023-05-05T06:18:00.962Z,12.55
2023-05-05T06:20:29.013Z,12.63
2023-05-05T06:22:57.219Z,12.74
2023-05-05T06:25:25.626Z,12.99
2023-05-05T06:27:53.808Z,13.23
2023-05-05T06:30:21.831Z,13.46
2023-05-05T06:32:49.959Z,13.70
2023-05-05T06:35:18.654Z,13.80
2023-05-05T06:37:46.535Z,13.82
2023-05-05T06:40:15.359Z,13.98
2023-05-05T06:42:43.284Z,14.05
2023-05-05T06:45:14.340Z,14.18
2023-05-05T06:47:42.631Z,14.41
2023-05-05T06:50:11.139Z,14.67
2023-05-05T06:52:39.259Z,14.90
2023-05-05T06:55:07.685Z,15.04
2023-05-05T06:57:35.875Z,15.19
2023-05-05T07:00:06.133Z,15.34
2023-05-05T07:02:34.387Z,15.48
2023-05-05T07:05:03.046Z,15.63
2023-05-05T07:07:32.462Z,15.75
2023-05-05T07:10:00.520Z,15.84
2023-05-05T07:12:31.269Z,15.89
2023-05-05T07:14:59.310Z,16.03
2023-05-05T07:17:27.284Z,16.12
2023-05-05T07:19:55.388Z,16.12
2023-05-05T07:22:23.273Z,16.22
2023-05-05T07:24:53.466Z,16.29
2023-05-05T07:27:22.535Z,16.37
2023-05-05T07:29:50.470Z,16.43
2023-05-05T07:32:18.542Z,16.44
2023-05-05T07:34:46.546Z,16.55
2023-05-05T07:37:14.493Z,16.68
2023-05-05T07:39:42.445Z,16.63
2023-05-05T07:42:10.968Z,16.68
2023-05-05T07:44:39.009Z,16.77
2023-05-05T07:47:06.908Z,16.77
2023-05-05T07:49:34.955Z,16.86
2023-05-05T07:52:03.071Z,16.93
2023-05-05T07:54:32.342Z,17.01
2023-05-05T07:57:00.245Z,17.00
2023-05-05T07:59:28.173Z,16.99
2023-05-05T08:01:56.122Z,17.09
2023-05-05T08:04:24.093Z,17.07
2023-05-05T08:06:52.085Z,16.88
2023-05-05T08:09:20.063Z,16.85
2023-05-05T08:11:47.994Z,16.78
2023-05-05T08:14:15.917Z,16.81
2023-05-05T08:16:43.900Z,16.83
2023-05-05T08:19:25.113Z,16.63
2023-05-05T08:21:56.550Z,16.68
2023-05-05T08:24:24.505Z,16.74
2023-05-05T08:29:50.066Z,17.13
2023-05-05T08:32:17.318Z,17.22
2023-05-05T08:34:43.880Z,17.24
2023-05-05T08:37:10.761Z,17.22
2023-05-05T08:39:37.364Z,17.16
2023-05-05T08:42:04.068Z,17.09
2023-05-05T08:44:30.831Z,17.08
2023-05-05T08:47:00.252Z,17.15
2023-05-05T08:49:31.651Z,17.16
2023-05-05T08:52:01.074Z,17.12
2023-05-05T08:54:30.132Z,16.99
2023-05-05T08:57:01.248Z,16.86
2023-05-05T08:59:32.219Z,16.80
2023-05-05T09:02:00.614Z,16.74
2023-05-05T09:04:27.854Z,16.77
2023-05-05T09:06:57.909Z,16.81
2023-05-05T09:09:25.832Z,16.82
2023-05-05T09:11:54.506Z,16.74
2023-05-05T09:14:21.410Z,16.61
2023-05-05T09:16:48.719Z,16.56
2023-05-05T09:19:15.330Z,16.64
2023-05-05T09:21:48.954Z,16.66
2023-05-05T09:24:15.599Z,16.63
2023-05-05T09:26:44.940Z,16.68
2023-05-05T09:29:22.050Z,16.71
2023-05-05T09:32:07.520Z,16.74
2023-05-05T09:34:35.414Z,16.82
2023-05-05T09:37:02.735Z,16.87
2023-05-05T09:39:29.417Z,16.89
2023-05-05T09:41:56.212Z,16.86
2023-05-05T09:44:34.606Z,16.79
2023-05-05T09:47:01.452Z,16.77
2023-05-05T09:49:30.041Z,16.80
2023-05-05T09:51:56.759Z,16.81
2023-05-05T09:54:27.670Z,16.86
2023-05-05T09:56:55.751Z,16.87
2023-05-05T09:59:23.543Z,16.99
2023-05-05T10:01:51.226Z,16.98
2023-05-05T10:04:28.547Z,16.91
2023-05-05T10:06:58.469Z,16.84
2023-05-05T10:09:26.465Z,16.78
2023-05-05T10:11:55.482Z,16.85
2023-05-05T10:14:23.682Z,16.81
2023-05-05T10:16:51.911Z,16.82
2023-05-05T10:19:23.095Z,16.84
2023-05-05T10:21:52.505Z,16.82
2023-05-05T10:24:52.454Z,16.80
2023-05-05T10:27:19.851Z,16.83
2023-05-05T10:30:06.941Z,16.84
2023-05-05T10:33:30.082Z,16.90
2023-05-05T10:36:01.622Z,16.95
2023-05-05T10:38:31.185Z,16.86
2023-05-05T10:41:00.649Z,16.76
2023-05-05T10:43:28.833Z,16.67
2023-05-05T10:45:55.993Z,16.66
2023-05-05T10:48:51.411Z,16.75
2023-05-05T10:51:38.738Z,16.71
2023-05-05T10:54:24.178Z,16.63
2023-05-05T10:56:51.222Z,16.63
2023-05-05T10:59:39.026Z,16.60
2023-05-05T11:02:28.772Z,16.63
2023-05-05T11:05:20.776Z,16.70
2023-05-05T11:07:49.390Z,16.72
2023-05-05T11:10:19.691Z,16.62
2023-05-05T11:12:58.658Z,16.59
2023-05-05T11:15:30.928Z,16.65
2023-05-05T11:17:59.547Z,16.73
2023-05-05T11:20:35.819Z,16.85
2023-05-05T11:23:02.576Z,16.99
2023-05-05T11:25:36.214Z,17.01
2023-05-05T11:28:29.215Z,16.88
2023-05-05T11:30:56.047Z,16.75
2023-05-05T11:33:37.279Z,16.62
2023-05-05T11:36:06.696Z,16.56
2023-05-05T11:38:36.729Z,16.57
2023-05-05T11:41:58.381Z,16.64
2023-05-05T11:44:31.067Z,16.67
2023-05-05T11:47:01.115Z,16.68
2023-05-05T11:49:28.442Z,16.72
2023-05-05T11:51:56.484Z,16.76
2023-05-05T11:54:24.460Z,16.79
2023-05-05T11:56:53.836Z,16.80
2023-05-05T11:59:21.106Z,16.78
2023-05-05T12:01:47.988Z,16.76
2023-05-05T12:04:15.459Z,16.76
2023-05-05T12:06:43.171Z,16.74
2023-05-05T12:09:21.107Z,16.76
2023-05-05T12:11:48.836Z,16.81
2023-05-05T12:14:15.760Z,16.92
2023-05-05T12:17:08.226Z,16.92
2023-05-05T12:19:35.579Z,16.93
2023-05-05T12:22:03.775Z,16.98
2023-05-05T12:24:30.662Z,16.98
2023-05-05T12:27:08.407Z,16.98
2023-05-05T12:29:34.951Z,16.91
2023-05-05T12:32:01.635Z,16.83
2023-05-05T12:34:28.798Z,16.83
2023-05-05T12:36:55.554Z,16.92
2023-05-05T12:39:22.277Z,16.97
2023-05-05T12:41:49.173Z,17.00
2023-05-05T12:44:15.938Z,16.96
2023-05-05T12:46:46.859Z,16.98
2023-05-05T12:49:13.947Z,17.03
2023-05-05T12:51:53.491Z,16.98
2023-05-05T12:54:20.093Z,16.96
2023-05-05T12:56:47.380Z,16.95
2023-05-05T12:59:23.536Z,16.94
2023-05-05T13:01:52.111Z,16.99
2023-05-05T13:04:20.791Z,16.98
2023-05-05T13:06:49.052Z,16.91
2023-05-05T13:09:23.627Z,16.79
2023-05-05T13:11:50.726Z,16.74
2023-05-05T13:14:17.971Z,16.72
2023-05-05T13:16:44.528Z,16.73
2023-05-05T13:19:11.166Z,16.77
2023-05-05T13:21:37.870Z,16.77
2023-05-05T13:24:23.028Z,16.78
2023-05-05T13:26:52.517Z,16.82
2023-05-05T13:29:19.121Z,16.78
2023-05-05T13:31:45.843Z,16.70
2023-05-05T13:34:12.666Z,16.67
2023-05-05T13:36:39.187Z,16.64
2023-05-05T13:39:06.427Z,16.61
2023-05-05T13:41:33.075Z,16.57
2023-05-05T13:43:59.721Z,16.54
2023-05-05T13:46:26.482Z,16.51
2023-05-05T13:48:56.661Z,16.49
2023-05-05T13:51:23.686Z,16.55
2023-05-05T13:53:50.288Z,16.60
2023-05-05T13:56:18.457Z,16.64
2023-05-05T13:58:45.746Z,16.73
2023-05-05T14:01:12.708Z,16.72
2023-05-05T14:03:39.494Z,16.69
2023-05-05T14:06:08.345Z,16.68
2023-05-05T14:08:35.198Z,16.67
2023-05-05T14:11:02.620Z,16.66
2023-05-05T14:13:29.305Z,16.66
2023-05-05T14:15:57.763Z,16.63
2023-05-05T14:18:25.135Z,16.59
2023-05-05T14:20:51.886Z,16.55
2023-05-05T14:23:18.625Z,16.56
2023-05-05T14:25:45.237Z,16.55
2023-05-05T14:28:11.926Z,16.54
2023-05-05T14:30:39.316Z,16.55
2023-05-05T14:33:06.301Z,16.53
2023-05-05T14:35:33.016Z,16.47
2023-05-05T14:37:59.732Z,16.46
2023-05-05T14:40:26.275Z,16.48
2023-05-05T14:42:55.635Z,16.45
2023-05-05T14:45:22.740Z,16.42
2023-05-05T14:47:49.561Z,16.39
2023-05-05T14:50:16.353Z,16.37
2023-05-05T14:52:43.884Z,16.42
2023-05-05T14:55:11.090Z,16.46
2023-05-05T14:57:38.138Z,16.47
2023-05-05T15:00:06.542Z,16.45
2023-05-05T15:02:33.269Z,16.45
2023-05-05T15:04:59.989Z,16.43
2023-05-05T15:07:27.964Z,16.45
2023-05-05T15:09:57.864Z,16.44
2023-05-05T15:12:25.358Z,16.40
2023-05-05T15:14:52.038Z,16.39
2023-05-05T15:17:21.682Z,16.36
2023-05-05T15:19:48.387Z,16.30
2023-05-05T15:22:14.960Z,16.28
2023-05-05T15:24:41.600Z,16.24
2023-05-05T15:27:08.242Z,16.20
2023-05-05T15:29:34.970Z,16.16
2023-05-05T15:32:01.741Z,16.16
2023-05-05T15:34:29.024Z,16.19
2023-05-05T15:36:56.198Z,16.17
2023-05-05T15:39:22.739Z,16.16
2023-05-05T15:41:49.461Z,16.12
2023-05-05T15:44:16.900Z,16.06
2023-05-05T15:46:43.581Z,16.03
2023-05-05T15:49:10.193Z,15.99
2023-05-05T15:51:36.914Z,15.97
2023-05-05T15:54:03.887Z,15.93
2023-05-05T15:56:30.908Z,15.87
2023-05-05T15:58:57.789Z,15.86
2023-05-05T16:01:24.465Z,15.88
2023-05-05T16:03:51.168Z,15.85
2023-05-05T16:06:17.794Z,15.81
2023-05-05T16:08:46.992Z,15.82
2023-05-05T16:11:13.884Z,15.79
2023-05-05T16:13:41.907Z,15.73
2023-05-05T16:16:09.127Z,15.65
2023-05-05T16:18:35.690Z,15.62
2023-05-05T16:21:02.318Z,15.59
2023-05-05T16:23:29.003Z,15.58
2023-05-05T16:25:56.201Z,15.57
2023-05-05T16:28:22.766Z,15.51
2023-05-05T16:30:49.338Z,15.45
2023-05-05T16:33:15.938Z,15.39
2023-05-05T16:35:45.791Z,15.36
2023-05-05T16:38:12.993Z,15.29
2023-05-05T16:40:40.293Z,15.26
2023-05-05T16:43:06.946Z,15.21
2023-05-05T16:45:33.567Z,15.11
2023-05-05T16:48:00.223Z,15.01
2023-05-05T16:50:27.096Z,14.94
2023-05-05T16:52:53.804Z,14.88
2023-05-05T16:55:20.483Z,14.82
2023-05-05T16:57:47.347Z,14.74
2023-05-05T17:00:14.998Z,14.68
2023-05-05T17:02:41.711Z,14.63
2023-05-05T17:05:09.092Z,14.59
2023-05-05T17:07:35.856Z,14.55
2023-05-05T17:10:02.550Z,14.51
2023-05-05T17:12:29.227Z,14.47
2023-05-05T17:14:56.255Z,14.42
2023-05-05T17:17:22.835Z,14.41
2023-05-05T17:19:49.416Z,14.36
2023-05-05T17:22:16.020Z,14.32
2023-05-05T17:24:42.610Z,14.27
2023-05-05T17:27:09.187Z,14.23
2023-05-05T17:29:40.203Z,14.17
2023-05-05T17:32:08.372Z,14.12
2023-05-05T17:34:35.102Z,14.08
2023-05-05T17:37:02.008Z,14.03
2023-05-05T17:39:30.128Z,13.98
2023-05-05T17:41:56.691Z,13.91
2023-05-05T17:44:23.438Z,13.86
2023-05-05T17:46:50.073Z,13.81
2023-05-05T17:49:16.690Z,13.78
2023-05-05T17:51:43.253Z,13.76
2023-05-05T17:54:10.103Z,13.73
2023-05-05T17:56:37.400Z,13.67
2023-05-05T17:59:04.044Z,13.64
2023-05-05T18:01:30.683Z,13.60
2023-05-05T18:03:57.255Z,13.55
2023-05-05T18:06:24.381Z,13.52
2023-05-05T18:08:51.007Z,13.49
2023-05-05T18:11:20.524Z,13.46
2023-05-05T18:13:47.084Z,13.44
2023-05-05T18:16:13.825Z,13.43
2023-05-05T18:18:41.114Z,13.35
2023-05-05T18:21:11.322Z,13.28
2023-05-05T18:23:39.116Z,13.24
2023-05-05T18:26:06.685Z,13.19
2023-05-05T18:28:33.468Z,13.15
2023-05-05T18:31:00.959Z,13.10
2023-05-05T18:33:27.768Z,13.07
2023-05-05T18:35:54.616Z,13.06
2023-05-05T18:38:21.691Z,12.99
2023-05-05T18:40:48.341Z,12.91
2023-05-05T18:43:14.912Z,12.85
2023-05-05T18:45:41.458Z,12.77
2023-05-05T18:48:08.064Z,12.73
2023-05-05T18:50:36.283Z,12.65
2023-05-05T18:53:03.079Z,12.63
2023-05-05T18:55:29.940Z,12.62
2023-05-05T18:57:56.645Z,12.60
2023-05-05T19:00:23.869Z,12.59
2023-05-05T19:02:51.277Z,12.55
2023-05-05T19:05:18.080Z,12.53
2023-05-05T19:07:45.319Z,12.50
2023-05-05T19:10:12.318Z,12.45
2023-05-05T19:12:39.070Z,12.43
2023-05-05T19:15:06.379Z,12.43
2023-05-05T19:17:33.216Z,12.44
2023-05-05T19:19:59.921Z,12.41
2023-05-05T19:22:26.668Z,12.37
2023-05-05T19:24:53.257Z,12.33
2023-05-05T19:27:19.874Z,12.32
2023-05-05T19:29:51.296Z,12.31
2023-05-05T19:32:19.028Z,12.31
2023-05-05T19:34:46.550Z,12.31
2023-05-05T19:37:13.307Z,12.31
2023-05-05T19:39:42.602Z,12.31
2023-05-05T19:42:09.220Z,12.30
2023-05-05T19:44:35.784Z,12.31
2023-05-05T19:47:02.680Z,12.30
2023-05-05T19:49:29.462Z,12.29
2023-05-05T19:51:57.059Z,12.28
2023-05-05T19:54:25.257Z,12.27
2023-05-05T19:56:52.069Z,12.29
2023-05-05T19:59:18.725Z,12.31
2023-05-05T20:01:45.580Z,12.34
2023-05-05T20:04:12.152Z,12.35
2023-05-05T20:06:38.728Z,12.34
2023-05-05T20:09:05.719Z,12.34
2023-05-05T20:11:32.776Z,12.35
2023-05-05T20:13:59.422Z,12.35
2023-05-05T20:16:26.210Z,12.33
2023-05-05T20:18:52.827Z,12.30
2023-05-05T20:21:20.599Z,12.29
2023-05-05T20:23:47.368Z,12.28
2023-05-05T20:26:13.989Z,12.26
2023-05-05T20:28:44.171Z,12.24
2023-05-05T20:31:13.555Z,12.21
2023-05-05T20:33:40.307Z,12.17
2023-05-05T20:36:07.146Z,12.14
2023-05-05T20:38:33.947Z,12.11
2023-05-05T20:41:00.615Z,12.08
2023-05-05T20:43:27.286Z,12.04
2023-05-05T20:45:53.988Z,12.01
2023-05-05T20:48:20.668Z,11.96
2023-05-05T20:50:47.291Z,11.94
2023-05-05T20:53:14.357Z,11.92
2023-05-05T20:55:41.097Z,11.88
2023-05-05T20:58:07.750Z,11.83
2023-05-05T21:00:34.668Z,11.76
2023-05-05T21:03:04.756Z,11.70
2023-05-05T21:05:31.565Z,11.65
2023-05-05T21:08:00.648Z,11.54
2023-05-05T21:10:28.338Z,11.48
2023-05-05T21:12:54.991Z,11.41
2023-05-05T21:15:21.665Z,11.32
2023-05-05T21:17:48.254Z,11.25
2023-05-05T21:20:15.767Z,11.19
2023-05-05T21:22:42.418Z,11.13
2023-05-05T21:25:17.733Z,11.08
2023-05-05T21:27:44.890Z,10.99
2023-05-05T21:30:11.848Z,10.91
2023-05-05T21:32:39.564Z,10.83
2023-05-05T21:35:08.004Z,10.79
2023-05-05T21:37:37.261Z,10.76
2023-05-05T21:40:05.659Z,10.72
2023-05-05T21:42:32.261Z,10.67
2023-05-05T21:44:58.816Z,10.62
2023-05-05T21:47:26.684Z,10.56
2023-05-05T21:49:53.295Z,10.51
2023-05-05T21:52:19.978Z,10.45
2023-05-05T21:54:46.535Z,10.40
2023-05-05T21:57:13.140Z,10.33
2023-05-05T21:59:40.579Z,10.28
2023-05-05T22:02:07.383Z,10.23
2023-05-05T22:04:34.033Z,10.17
2023-05-05T22:07:00.781Z,10.14
2023-05-05T22:09:27.466Z,10.11
2023-05-05T22:11:54.143Z,10.10
2023-05-05T22:14:20.866Z,10.05
2023-05-05T22:16:47.590Z,10.03
2023-05-05T22:19:14.259Z,10.01
2023-05-05T22:21:40.964Z,9.94
2023-05-05T22:24:07.826Z,9.92
2023-05-05T22:26:34.519Z,9.87
2023-05-05T22:29:01.143Z,9.86
2023-05-05T22:31:28.765Z,9.84
2023-05-05T22:33:55.994Z,9.81
2023-05-05T22:36:22.663Z,9.78
2023-05-05T22:38:49.300Z,9.73
2023-05-05T22:41:15.939Z,9.69
2023-05-05T22:43:42.631Z,9.63
2023-05-05T22:46:09.511Z,9.60
2023-05-05T22:48:36.228Z,9.57
2023-05-05T22:51:03.068Z,9.53
2023-05-05T22:53:29.712Z,9.49
2023-05-05T22:55:57.843Z,9.47
2023-05-05T22:58:25.315Z,9.43
2023-05-05T23:00:52.000Z,9.40
2023-05-05T23:03:18.848Z,9.37
2023-05-05T23:05:45.568Z,9.33
2023-05-05T23:08:12.252Z,9.26
2023-05-05T23:10:38.817Z,9.24
2023-05-05T23:13:10.076Z,9.24
2023-05-05T23:15:36.765Z,9.22
2023-05-05T23:28:25.437Z,9.07
2023-05-05T23:30:53.424Z,9.01
2023-05-05T23:33:21.497Z,9.01
2023-05-05T23:35:49.469Z,8.97
2023-05-05T23:38:17.434Z,8.95
2023-05-05T23:40:45.371Z,8.92
2023-05-05T23:43:13.471Z,8.89
2023-05-05T23:45:41.558Z,8.86
2023-05-05T23:48:09.556Z,8.83
2023-05-05T23:50:37.495Z,8.79
2023-05-05T23:53:05.481Z,8.74
2023-05-05T23:55:33.541Z,8.72
2023-05-05T23:58:01.498Z,8.70
